createdAt,value
2017-05-31T00:00:13.244Z,929.6
2017-05-31T00:00:32.034Z,929.61
2017-05-31T00:00:51.330Z,929.57
2017-05-31T00:01:10.600Z,929.57
2017-05-31T00:01:29.895Z,929.58
2017-05-31T00:01:48.654Z,929.58
2017-05-31T00:02:07.428Z,929.58
2017-05-31T00:02:25.164Z,929.59
2017-05-31T00:02:43.930Z,929.6
2017-05-31T00:03:02.689Z,929.58
2017-05-31T00:03:21.981Z,929.58
2017-05-31T00:03:41.272Z,929.58
2017-05-31T00:04:00.045Z,929.57
2017-05-31T00:04:19.266Z,929.55
2017-05-31T00:04:38.047Z,929.56
2017-05-31T00:04:57.305Z,929.53
2017-05-31T00:05:16.590Z,929.56
2017-05-31T00:05:35.902Z,929.53
2017-05-31T00:05:55.160Z,929.59
2017-05-31T00:06:14.014Z,929.55
2017-05-31T00:06:33.294Z,929.54
2017-05-31T00:06:52.084Z,929.6
2017-05-31T00:07:11.376Z,929.53
2017-05-31T00:07:30.645Z,929.56
2017-05-31T00:07:48.870Z,929.51
2017-05-31T00:08:08.155Z,929.54
2017-05-31T00:08:27.451Z,929.53
2017-05-31T00:08:46.691Z,929.54
2017-05-31T00:09:05.464Z,929.54
2017-05-31T00:09:24.730Z,929.52
2017-05-31T00:09:43.995Z,929.54
2017-05-31T00:10:02.804Z,929.55
2017-05-31T00:10:21.544Z,929.54
2017-05-31T00:10:40.311Z,929.56
2017-05-31T00:10:59.582Z,929.5
2017-05-31T00:11:17.863Z,929.49
2017-05-31T00:11:36.637Z,929.54
2017-05-31T00:11:54.846Z,929.51
2017-05-31T00:12:14.127Z,929.51
2017-05-31T00:12:33.423Z,929.51
2017-05-31T00:12:52.704Z,929.51
2017-05-31T00:13:12.007Z,929.51
2017-05-31T00:13:30.298Z,929.51
2017-05-31T00:13:49.061Z,929.47
2017-05-31T00:14:07.843Z,929.47
2017-05-31T00:14:26.572Z,929.49
2017-05-31T00:14:45.851Z,929.51
2017-05-31T00:15:04.703Z,929.5
2017-05-31T00:15:23.046Z,929.52
2017-05-31T00:15:42.351Z,929.53
2017-05-31T00:16:01.647Z,929.53
2017-05-31T00:16:19.511Z,929.53
2017-05-31T00:16:38.270Z,929.54
2017-05-31T00:16:57.568Z,929.5
2017-05-31T00:17:16.797Z,929.51
2017-05-31T00:17:36.057Z,929.54
2017-05-31T00:17:55.324Z,929.5
2017-05-31T00:18:14.630Z,929.49
2017-05-31T00:18:33.928Z,929.54
2017-05-31T00:18:52.681Z,929.51
2017-05-31T00:19:11.482Z,929.49
2017-05-31T00:19:30.249Z,929.51
2017-05-31T00:19:49.041Z,929.46
2017-05-31T00:20:08.407Z,929.48
2017-05-31T00:20:26.655Z,929.47
2017-05-31T00:20:45.922Z,929.5
2017-05-31T00:21:04.707Z,929.5
2017-05-31T00:21:23.589Z,929.48
2017-05-31T00:21:42.878Z,929.47
2017-05-31T00:22:02.166Z,929.47
2017-05-31T00:22:21.448Z,929.47
2017-05-31T00:22:40.732Z,929.48
2017-05-31T00:22:59.500Z,929.45
2017-05-31T00:23:18.493Z,929.47
2017-05-31T00:23:37.812Z,929.52
2017-05-31T00:23:57.109Z,929.48
2017-05-31T00:24:15.852Z,929.47
2017-05-31T00:24:34.613Z,929.45
2017-05-31T00:24:53.903Z,929.51
2017-05-31T00:25:13.166Z,929.49
2017-05-31T00:25:31.948Z,929.54
2017-05-31T00:25:49.679Z,929.52
2017-05-31T00:26:09.035Z,929.55
2017-05-31T00:26:28.555Z,929.57
2017-05-31T00:26:47.328Z,929.55
2017-05-31T00:27:06.622Z,929.54
2017-05-31T00:27:25.409Z,929.55
2017-05-31T00:27:44.693Z,929.55
2017-05-31T00:28:03.466Z,929.56
2017-05-31T00:28:22.220Z,929.55
2017-05-31T00:28:41.501Z,929.59
2017-05-31T00:29:00.321Z,929.59
2017-05-31T00:29:18.578Z,929.58
2017-05-31T00:29:37.837Z,929.57
2017-05-31T00:29:56.617Z,929.61
2017-05-31T00:30:13.831Z,929.62
2017-05-31T00:30:33.123Z,929.61
2017-05-31T00:30:52.400Z,929.63
2017-05-31T00:31:11.654Z,929.61
2017-05-31T00:31:29.922Z,929.59
2017-05-31T00:31:49.196Z,929.63
2017-05-31T00:32:08.507Z,929.59
2017-05-31T00:32:27.281Z,929.63
2017-05-31T00:32:46.580Z,929.6
2017-05-31T00:33:05.877Z,929.65
2017-05-31T00:33:24.112Z,929.64
2017-05-31T00:33:42.872Z,929.65
2017-05-31T00:34:02.189Z,929.61
2017-05-31T00:34:21.434Z,929.63
2017-05-31T00:34:39.684Z,929.61
2017-05-31T00:34:58.954Z,929.61
2017-05-31T00:35:17.747Z,929.64
2017-05-31T00:35:36.554Z,929.67
2017-05-31T00:35:56.124Z,929.68
2017-05-31T00:36:14.607Z,929.65
2017-05-31T00:36:33.483Z,929.65
2017-05-31T00:36:52.231Z,929.66
2017-05-31T00:37:11.485Z,929.63
2017-05-31T00:37:30.753Z,929.63
2017-05-31T00:37:49.511Z,929.65
2017-05-31T00:38:08.228Z,929.64
2017-05-31T00:38:26.960Z,929.6
2017-05-31T00:38:45.746Z,929.6
2017-05-31T00:39:05.021Z,929.6
2017-05-31T00:39:24.364Z,929.58
2017-05-31T00:39:43.661Z,929.61
2017-05-31T00:40:02.967Z,929.59
2017-05-31T00:40:21.772Z,929.6
2017-05-31T00:40:40.532Z,929.58
2017-05-31T00:40:59.784Z,929.62
2017-05-31T00:41:18.519Z,929.57
2017-05-31T00:41:37.259Z,929.55
2017-05-31T00:41:56.035Z,929.57
2017-05-31T00:42:14.801Z,929.55
2017-05-31T00:42:33.559Z,929.59
2017-05-31T00:42:52.856Z,929.53
2017-05-31T00:43:12.348Z,929.55
2017-05-31T00:43:31.761Z,929.56
2017-05-31T00:43:50.516Z,929.53
2017-05-31T00:44:08.788Z,929.53
2017-05-31T00:44:27.574Z,929.51
2017-05-31T00:44:46.390Z,929.52
2017-05-31T00:45:05.655Z,929.57
2017-05-31T00:45:23.927Z,929.52
2017-05-31T00:45:43.206Z,929.56
2017-05-31T00:46:02.508Z,929.53
2017-05-31T00:46:21.785Z,929.54
2017-05-31T00:46:40.742Z,929.51
2017-05-31T00:46:59.506Z,929.54
2017-05-31T00:47:17.842Z,929.54
2017-05-31T00:47:36.629Z,929.54
2017-05-31T00:47:55.403Z,929.56
2017-05-31T00:48:14.689Z,929.55
2017-05-31T00:48:33.443Z,929.54
2017-05-31T00:48:52.686Z,929.56
2017-05-31T00:49:11.985Z,929.58
2017-05-31T00:49:31.291Z,929.56
2017-05-31T00:49:50.549Z,929.54
2017-05-31T00:50:09.340Z,929.53
2017-05-31T00:50:27.621Z,929.54
2017-05-31T00:50:46.357Z,929.57
2017-05-31T00:51:05.096Z,929.57
2017-05-31T00:51:23.357Z,929.57
2017-05-31T00:51:42.910Z,929.58
2017-05-31T00:52:02.165Z,929.55
2017-05-31T00:52:20.945Z,929.57
2017-05-31T00:52:39.722Z,929.58
2017-05-31T00:52:58.999Z,929.61
2017-05-31T00:53:17.816Z,929.59
2017-05-31T00:53:36.614Z,929.63
2017-05-31T00:53:55.897Z,929.63
2017-05-31T00:54:14.655Z,929.62
2017-05-31T00:54:33.425Z,929.66
2017-05-31T00:54:52.736Z,929.66
2017-05-31T00:55:11.974Z,929.65
2017-05-31T00:55:30.741Z,929.62
2017-05-31T00:55:50.069Z,929.68
2017-05-31T00:56:08.810Z,929.63
2017-05-31T00:56:27.597Z,929.64
2017-05-31T00:56:47.089Z,929.64
2017-05-31T00:57:06.340Z,929.62
2017-05-31T00:57:24.583Z,929.62
2017-05-31T00:57:42.354Z,929.63
2017-05-31T00:58:01.642Z,929.65
2017-05-31T00:58:20.424Z,929.64
2017-05-31T00:58:39.688Z,929.66
2017-05-31T00:58:58.988Z,929.64
2017-05-31T00:59:17.755Z,929.62
2017-05-31T00:59:36.542Z,929.6
2017-05-31T00:59:55.835Z,929.65
2017-05-31T01:00:14.594Z,929.63
2017-05-31T01:00:33.377Z,929.58
2017-05-31T01:00:52.688Z,929.6
2017-05-31T01:01:11.980Z,929.57
2017-05-31T01:01:30.725Z,929.56
2017-05-31T01:01:49.967Z,929.58
2017-05-31T01:02:08.740Z,929.6
2017-05-31T01:02:27.497Z,929.62
2017-05-31T01:02:46.271Z,929.61
2017-05-31T01:03:05.556Z,929.57
2017-05-31T01:03:24.332Z,929.58
2017-05-31T01:03:42.594Z,929.57
2017-05-31T01:04:01.845Z,929.58
2017-05-31T01:04:20.644Z,929.61
2017-05-31T01:04:38.867Z,929.61
2017-05-31T01:04:57.667Z,929.59
2017-05-31T01:05:16.944Z,929.59
2017-05-31T01:05:36.207Z,929.55
2017-05-31T01:05:55.492Z,929.59
2017-05-31T01:06:14.803Z,929.6
2017-05-31T01:06:33.611Z,929.6
2017-05-31T01:06:52.505Z,929.59
2017-05-31T01:07:11.759Z,929.6
2017-05-31T01:07:29.999Z,929.6
2017-05-31T01:07:49.264Z,929.54
2017-05-31T01:08:08.561Z,929.57
2017-05-31T01:08:27.309Z,929.58
2017-05-31T01:08:46.577Z,929.56
2017-05-31T01:09:05.864Z,929.55
2017-05-31T01:09:24.604Z,929.57
2017-05-31T01:09:43.879Z,929.56
2017-05-31T01:10:02.596Z,929.54
2017-05-31T01:10:21.386Z,929.5
2017-05-31T01:10:40.689Z,929.51
2017-05-31T01:10:59.460Z,929.53
2017-05-31T01:11:18.767Z,929.55
2017-05-31T01:11:38.090Z,929.5
2017-05-31T01:11:57.626Z,929.53
2017-05-31T01:12:16.400Z,929.52
2017-05-31T01:12:35.751Z,929.52
2017-05-31T01:12:55.082Z,929.52
2017-05-31T01:13:14.405Z,929.51
2017-05-31T01:13:33.720Z,929.51
2017-05-31T01:13:53.020Z,929.53
2017-05-31T01:14:12.363Z,929.54
2017-05-31T01:14:31.657Z,929.5
2017-05-31T01:14:50.972Z,929.5
2017-05-31T01:15:09.726Z,929.52
2017-05-31T01:15:28.629Z,929.54
2017-05-31T01:15:47.874Z,929.53
2017-05-31T01:16:07.163Z,929.5
2017-05-31T01:16:26.412Z,929.51
2017-05-31T01:16:45.717Z,929.55
2017-05-31T01:17:04.491Z,929.51
2017-05-31T01:17:23.776Z,929.53
2017-05-31T01:17:42.540Z,929.5
2017-05-31T01:18:01.838Z,929.54
2017-05-31T01:18:20.103Z,929.51
2017-05-31T01:18:38.398Z,929.5
2017-05-31T01:18:57.678Z,929.51
2017-05-31T01:19:16.920Z,929.51
2017-05-31T01:19:36.143Z,929.5
2017-05-31T01:19:55.402Z,929.48
2017-05-31T01:20:14.722Z,929.49
2017-05-31T01:20:33.483Z,929.5
2017-05-31T01:20:52.764Z,929.53
2017-05-31T01:21:10.563Z,929.53
2017-05-31T01:21:29.901Z,929.49
2017-05-31T01:21:48.207Z,929.52
2017-05-31T01:22:07.833Z,929.49
2017-05-31T01:22:26.129Z,929.48
2017-05-31T01:22:45.452Z,929.48
2017-05-31T01:23:04.797Z,929.5
2017-05-31T01:23:24.055Z,929.48
2017-05-31T01:23:42.803Z,929.51
2017-05-31T01:24:02.074Z,929.46
2017-05-31T01:24:20.852Z,929.42
2017-05-31T01:24:39.626Z,929.48
2017-05-31T01:24:58.950Z,929.44
2017-05-31T01:25:18.310Z,929.42
2017-05-31T01:25:37.071Z,929.43
2017-05-31T01:25:56.379Z,929.45
2017-05-31T01:26:15.646Z,929.41
2017-05-31T01:26:34.431Z,929.4
2017-05-31T01:26:53.215Z,929.43
2017-05-31T01:27:12.102Z,929.47
2017-05-31T01:27:31.031Z,929.47
2017-05-31T01:27:51.723Z,929.42
2017-05-31T01:28:11.038Z,929.4
2017-05-31T01:28:29.820Z,929.44
2017-05-31T01:28:48.624Z,929.38
2017-05-31T01:29:07.426Z,929.39
2017-05-31T01:29:26.348Z,929.43
2017-05-31T01:29:45.663Z,929.41
2017-05-31T01:30:04.452Z,929.42
2017-05-31T01:30:23.219Z,929.41
2017-05-31T01:30:42.569Z,929.4
2017-05-31T01:31:01.369Z,929.43
2017-05-31T01:31:20.261Z,929.45
2017-05-31T01:31:39.569Z,929.39
2017-05-31T01:31:58.378Z,929.38
2017-05-31T01:32:17.640Z,929.38
2017-05-31T01:32:36.906Z,929.4
2017-05-31T01:32:55.674Z,929.35
2017-05-31T01:33:14.423Z,929.37
2017-05-31T01:33:33.179Z,929.38
2017-05-31T01:33:52.478Z,929.35
2017-05-31T01:34:11.822Z,929.37
2017-05-31T01:34:30.595Z,929.35
2017-05-31T01:34:49.324Z,929.39
2017-05-31T01:35:08.674Z,929.35
2017-05-31T01:35:27.495Z,929.4
2017-05-31T01:35:46.820Z,929.36
2017-05-31T01:36:06.575Z,929.37
2017-05-31T01:36:25.278Z,929.38
2017-05-31T01:36:44.608Z,929.38
2017-05-31T01:37:02.879Z,929.39
2017-05-31T01:37:22.148Z,929.36
2017-05-31T01:37:40.425Z,929.39
2017-05-31T01:37:59.189Z,929.39
2017-05-31T01:38:18.540Z,929.4
2017-05-31T01:38:37.836Z,929.35
2017-05-31T01:38:57.083Z,929.39
2017-05-31T01:39:15.867Z,929.35
2017-05-31T01:39:34.748Z,929.4
2017-05-31T01:39:54.046Z,929.35
2017-05-31T01:40:12.810Z,929.38
2017-05-31T01:40:32.114Z,929.38
2017-05-31T01:40:50.871Z,929.39
2017-05-31T01:41:09.186Z,929.34
2017-05-31T01:41:27.549Z,929.39
2017-05-31T01:41:46.391Z,929.37
2017-05-31T01:42:05.969Z,929.38
2017-05-31T01:42:24.229Z,929.36
2017-05-31T01:42:43.525Z,929.34
2017-05-31T01:43:02.775Z,929.35
2017-05-31T01:43:21.554Z,929.35
2017-05-31T01:43:39.818Z,929.34
2017-05-31T01:43:59.096Z,929.33
2017-05-31T01:44:17.350Z,929.35
2017-05-31T01:44:36.135Z,929.36
2017-05-31T01:44:55.413Z,929.35
2017-05-31T01:45:14.211Z,929.33
2017-05-31T01:45:33.499Z,929.34
2017-05-31T01:45:52.896Z,929.34
2017-05-31T01:46:11.693Z,929.38
2017-05-31T01:46:30.460Z,929.35
2017-05-31T01:46:49.235Z,929.36
2017-05-31T01:47:08.570Z,929.36
2017-05-31T01:47:27.835Z,929.35
2017-05-31T01:47:47.075Z,929.32
2017-05-31T01:48:06.361Z,929.34
2017-05-31T01:48:25.654Z,929.35
2017-05-31T01:48:45.950Z,929.34
2017-05-31T01:49:05.233Z,929.37
2017-05-31T01:49:24.544Z,929.34
2017-05-31T01:49:42.788Z,929.34
2017-05-31T01:50:01.570Z,929.34
2017-05-31T01:50:20.800Z,929.35
2017-05-31T01:50:39.105Z,929.33
2017-05-31T01:50:57.877Z,929.32
2017-05-31T01:51:17.190Z,929.31
2017-05-31T01:51:36.464Z,929.31
2017-05-31T01:51:55.770Z,929.27
2017-05-31T01:52:15.097Z,929.3
2017-05-31T01:52:34.383Z,929.3
2017-05-31T01:52:53.141Z,929.31
2017-05-31T01:53:11.967Z,929.28
2017-05-31T01:53:31.282Z,929.33
2017-05-31T01:53:50.556Z,929.32
2017-05-31T01:54:09.799Z,929.31
2017-05-31T01:54:28.562Z,929.32
2017-05-31T01:54:47.847Z,929.33
2017-05-31T01:55:06.628Z,929.32
2017-05-31T01:55:25.385Z,929.32
2017-05-31T01:55:44.663Z,929.32
2017-05-31T01:56:03.913Z,929.27
2017-05-31T01:56:23.182Z,929.27
2017-05-31T01:56:41.967Z,929.28
2017-05-31T01:57:01.239Z,929.25
2017-05-31T01:57:19.987Z,929.25
2017-05-31T01:57:39.252Z,929.27
2017-05-31T01:57:58.502Z,929.26
2017-05-31T01:58:17.256Z,929.24
2017-05-31T01:58:36.533Z,929.26
2017-05-31T01:58:55.839Z,929.24
2017-05-31T01:59:14.605Z,929.24
2017-05-31T01:59:33.376Z,929.24
2017-05-31T01:59:52.673Z,929.21
2017-05-31T02:00:11.628Z,929.26
2017-05-31T02:00:30.399Z,929.19
2017-05-31T02:00:48.143Z,929.24
2017-05-31T02:01:06.903Z,929.24
2017-05-31T02:01:26.204Z,929.27
2017-05-31T02:01:45.511Z,929.21
2017-05-31T02:02:04.848Z,929.21
2017-05-31T02:02:23.643Z,929.22
2017-05-31T02:02:42.927Z,929.23
2017-05-31T02:03:02.622Z,929.24
2017-05-31T02:03:21.362Z,929.27
2017-05-31T02:03:40.683Z,929.19
2017-05-31T02:03:59.940Z,929.28
2017-05-31T02:04:18.704Z,929.25
2017-05-31T02:04:37.442Z,929.25
2017-05-31T02:04:56.752Z,929.22
2017-05-31T02:05:16.036Z,929.25
2017-05-31T02:05:35.291Z,929.25
2017-05-31T02:05:54.552Z,929.23
2017-05-31T02:06:13.822Z,929.26
2017-05-31T02:06:32.614Z,929.26
2017-05-31T02:06:51.848Z,929.22
2017-05-31T02:07:10.079Z,929.27
2017-05-31T02:07:28.342Z,929.26
2017-05-31T02:07:47.089Z,929.26
2017-05-31T02:08:05.839Z,929.24
2017-05-31T02:08:25.104Z,929.23
2017-05-31T02:08:44.363Z,929.24
2017-05-31T02:09:03.627Z,929.24
2017-05-31T02:09:22.895Z,929.24
2017-05-31T02:09:41.642Z,929.25
2017-05-31T02:10:01.007Z,929.22
2017-05-31T02:10:48.550Z,929.23
2017-05-31T02:11:07.882Z,929.2
2017-05-31T02:12:01.163Z,929.2
2017-05-31T02:12:48.322Z,929.2
2017-05-31T02:13:07.124Z,929.2
2017-05-31T02:13:25.922Z,929.19
2017-05-31T02:13:45.212Z,929.2
2017-05-31T02:14:03.992Z,929.2
2017-05-31T02:14:22.269Z,929.15
2017-05-31T02:14:41.539Z,929.14
2017-05-31T02:15:00.841Z,929.14
2017-05-31T02:15:19.617Z,929.17
2017-05-31T02:15:38.387Z,929.16
2017-05-31T02:15:56.645Z,929.15
2017-05-31T02:16:15.950Z,929.13
2017-05-31T02:16:34.756Z,929.11
2017-05-31T02:16:53.655Z,929.1
2017-05-31T02:17:12.945Z,929.11
2017-05-31T02:17:32.213Z,929.15
2017-05-31T02:17:50.938Z,929.14
2017-05-31T02:18:09.696Z,929.13
2017-05-31T02:18:28.453Z,929.14
2017-05-31T02:18:46.674Z,929.12
2017-05-31T02:19:07.981Z,929.14
2017-05-31T02:19:27.260Z,929.15
2017-05-31T02:19:46.040Z,929.12
2017-05-31T02:20:05.311Z,929.14
2017-05-31T02:20:24.553Z,929.12
2017-05-31T02:20:43.806Z,929.16
2017-05-31T02:21:02.576Z,929.14
2017-05-31T02:21:21.853Z,929.15
2017-05-31T02:21:41.135Z,929.16
2017-05-31T02:22:00.443Z,929.14
2017-05-31T02:22:19.695Z,929.18
2017-05-31T02:22:39.008Z,929.16
2017-05-31T02:22:58.305Z,929.16
2017-05-31T02:23:18.306Z,929.15
2017-05-31T02:23:37.135Z,929.17
2017-05-31T02:23:55.877Z,929.18
2017-05-31T02:24:15.175Z,929.19
2017-05-31T02:24:33.435Z,929.22
2017-05-31T02:24:52.722Z,929.2
2017-05-31T02:25:12.021Z,929.18
2017-05-31T02:25:31.287Z,929.21
2017-05-31T02:25:50.525Z,929.21
2017-05-31T02:26:09.819Z,929.18
2017-05-31T02:26:29.111Z,929.2
2017-05-31T02:26:48.410Z,929.18
2017-05-31T02:27:07.686Z,929.18
2017-05-31T02:27:26.957Z,929.14
2017-05-31T02:27:45.209Z,929.18
2017-05-31T02:28:03.960Z,929.15
2017-05-31T02:28:23.263Z,929.15
2017-05-31T02:28:42.593Z,929.17
2017-05-31T02:29:01.356Z,929.15
2017-05-31T02:29:20.649Z,929.2
2017-05-31T02:29:38.921Z,929.18
2017-05-31T02:29:57.159Z,929.22
2017-05-31T02:30:15.408Z,929.19
2017-05-31T02:30:33.695Z,929.21
2017-05-31T02:30:52.963Z,929.23
2017-05-31T02:31:11.781Z,929.2
2017-05-31T02:31:30.561Z,929.18
2017-05-31T02:31:49.811Z,929.16
2017-05-31T02:32:09.084Z,929.18
2017-05-31T02:32:28.388Z,929.16
2017-05-31T02:32:47.694Z,929.2
2017-05-31T02:33:05.903Z,929.2
2017-05-31T02:33:25.204Z,929.18
2017-05-31T02:33:44.450Z,929.16
2017-05-31T02:34:03.230Z,929.18
2017-05-31T02:34:20.965Z,929.18
2017-05-31T02:34:39.790Z,929.17
2017-05-31T02:34:59.067Z,929.16
2017-05-31T02:35:17.849Z,929.19
2017-05-31T02:35:36.633Z,929.16
2017-05-31T02:35:55.876Z,929.19
2017-05-31T02:36:14.684Z,929.17
2017-05-31T02:36:33.414Z,929.18
2017-05-31T02:36:52.788Z,929.21
2017-05-31T02:37:11.567Z,929.17
2017-05-31T02:37:29.831Z,929.2
2017-05-31T02:37:48.591Z,929.21
2017-05-31T02:38:06.836Z,929.2
2017-05-31T02:38:24.640Z,929.27
2017-05-31T02:38:43.897Z,929.22
2017-05-31T02:39:02.626Z,929.26
2017-05-31T02:39:21.378Z,929.23
2017-05-31T02:39:40.629Z,929.25
2017-05-31T02:39:59.602Z,929.23
2017-05-31T02:40:18.353Z,929.25
2017-05-31T02:40:37.608Z,929.25
2017-05-31T02:40:56.870Z,929.25
2017-05-31T02:41:15.377Z,929.21
2017-05-31T02:41:33.648Z,929.25
2017-05-31T02:41:53.031Z,929.23
2017-05-31T02:42:12.288Z,929.21
2017-05-31T02:42:31.584Z,929.24
2017-05-31T02:42:50.907Z,929.23
2017-05-31T02:43:10.185Z,929.24
2017-05-31T02:43:29.501Z,929.26
2017-05-31T02:43:47.206Z,929.28
2017-05-31T02:44:06.468Z,929.27
2017-05-31T02:44:25.765Z,929.27
2017-05-31T02:44:44.535Z,929.2
2017-05-31T02:45:03.326Z,929.27
2017-05-31T02:45:21.584Z,929.24
2017-05-31T02:45:40.903Z,929.22
2017-05-31T02:45:59.682Z,929.25
2017-05-31T02:46:18.472Z,929.24
2017-05-31T02:46:37.707Z,929.21
2017-05-31T02:46:57.018Z,929.2
2017-05-31T02:47:15.746Z,929.2
2017-05-31T02:47:35.063Z,929.18
2017-05-31T02:47:53.819Z,929.18
2017-05-31T02:48:13.134Z,929.19
2017-05-31T02:48:32.407Z,929.19
2017-05-31T02:48:51.704Z,929.16
2017-05-31T02:49:10.977Z,929.18
2017-05-31T02:49:30.284Z,929.15
2017-05-31T02:49:49.009Z,929.16
2017-05-31T02:50:08.403Z,929.13
2017-05-31T02:50:27.131Z,929.14
2017-05-31T02:50:46.442Z,929.13
2017-05-31T02:51:05.742Z,929.13
2017-05-31T02:51:24.526Z,929.14
2017-05-31T02:51:43.313Z,929.13
2017-05-31T02:52:02.569Z,929.12
2017-05-31T02:52:21.329Z,929.1
2017-05-31T02:52:39.624Z,929.12
2017-05-31T02:52:58.972Z,929.08
2017-05-31T02:53:18.286Z,929.11
2017-05-31T02:53:37.634Z,929.1
2017-05-31T02:53:56.927Z,929.1
2017-05-31T02:54:15.305Z,929.07
2017-05-31T02:54:34.549Z,929.07
2017-05-31T02:54:53.869Z,929.08
2017-05-31T02:55:12.685Z,929.09
2017-05-31T02:55:31.534Z,929.08
2017-05-31T02:55:50.298Z,929.11
2017-05-31T02:56:09.597Z,929.1
2017-05-31T02:56:28.378Z,929.07
2017-05-31T02:56:47.709Z,929.06
2017-05-31T02:57:06.981Z,929.08
2017-05-31T02:57:25.238Z,929.08
2017-05-31T02:57:44.490Z,929.11
2017-05-31T02:58:03.295Z,929.1
2017-05-31T02:58:21.555Z,929.06
2017-05-31T02:58:40.333Z,929.11
2017-05-31T02:58:59.620Z,929.09
2017-05-31T02:59:18.370Z,929.1
2017-05-31T02:59:37.099Z,929.09
2017-05-31T02:59:56.381Z,929.06
2017-05-31T03:00:15.643Z,929.08
2017-05-31T03:00:34.414Z,929.05
2017-05-31T03:00:53.697Z,929.04
2017-05-31T03:01:11.969Z,929.04
2017-05-31T03:01:30.757Z,929.05
2017-05-31T03:01:50.018Z,929.03
2017-05-31T03:02:09.309Z,929.02
2017-05-31T03:02:28.585Z,929.05
2017-05-31T03:02:47.872Z,929.03
2017-05-31T03:03:07.137Z,929.01
2017-05-31T03:03:25.412Z,929.01
2017-05-31T03:03:44.703Z,929.04
2017-05-31T03:04:03.963Z,928.99
2017-05-31T03:04:23.213Z,929
2017-05-31T03:04:42.515Z,929.01
2017-05-31T03:05:01.788Z,929
2017-05-31T03:05:21.100Z,929
2017-05-31T03:05:40.413Z,928.99
2017-05-31T03:05:59.714Z,928.97
2017-05-31T03:06:18.988Z,929
2017-05-31T03:06:37.780Z,928.97
2017-05-31T03:06:57.166Z,928.94
2017-05-31T03:07:15.533Z,928.95
2017-05-31T03:07:35.238Z,928.96
2017-05-31T03:07:55.134Z,928.98
2017-05-31T03:08:14.804Z,928.96
2017-05-31T03:08:33.646Z,928.96
2017-05-31T03:08:51.907Z,928.95
2017-05-31T03:09:11.141Z,928.92
2017-05-31T03:09:29.901Z,928.91
2017-05-31T03:09:49.181Z,928.91
2017-05-31T03:10:08.472Z,928.92
2017-05-31T03:10:27.235Z,928.9
2017-05-31T03:10:45.485Z,928.95
2017-05-31T03:11:04.784Z,928.92
2017-05-31T03:11:24.049Z,928.9
2017-05-31T03:11:43.358Z,928.93
2017-05-31T03:12:02.109Z,928.94
2017-05-31T03:12:21.379Z,928.92
2017-05-31T03:12:40.163Z,928.89
2017-05-31T03:12:59.485Z,928.88
2017-05-31T03:13:18.110Z,928.87
2017-05-31T03:13:37.513Z,928.88
2017-05-31T03:13:57.323Z,928.85
2017-05-31T03:14:16.740Z,928.85
2017-05-31T03:14:36.535Z,928.84
2017-05-31T03:14:55.832Z,928.87
2017-05-31T03:15:14.636Z,928.85
2017-05-31T03:15:32.897Z,928.82
2017-05-31T03:15:51.707Z,928.86
2017-05-31T03:16:10.653Z,928.84
2017-05-31T03:16:31.455Z,928.9
2017-05-31T03:16:50.730Z,928.87
2017-05-31T03:17:09.494Z,928.84
2017-05-31T03:17:28.736Z,928.83
2017-05-31T03:17:48.491Z,928.82
2017-05-31T03:18:07.879Z,928.82
2017-05-31T03:18:26.655Z,928.83
2017-05-31T03:18:44.385Z,928.81
2017-05-31T03:19:02.688Z,928.82
2017-05-31T03:19:22.390Z,928.79
2017-05-31T03:19:41.214Z,928.84
2017-05-31T03:20:00.497Z,928.8
2017-05-31T03:20:19.279Z,928.79
2017-05-31T03:20:39.226Z,928.78
2017-05-31T03:20:58.568Z,928.82
2017-05-31T03:21:17.370Z,928.79
2017-05-31T03:21:35.085Z,928.82
2017-05-31T03:21:54.410Z,928.84
2017-05-31T03:22:13.460Z,928.81
2017-05-31T03:22:33.618Z,928.78
2017-05-31T03:22:53.650Z,928.78
2017-05-31T03:23:13.537Z,928.8
2017-05-31T03:23:33.067Z,928.81
2017-05-31T03:23:52.919Z,928.79
2017-05-31T03:24:12.031Z,928.8
2017-05-31T03:24:30.553Z,928.77
2017-05-31T03:24:49.356Z,928.82
2017-05-31T03:25:08.883Z,928.82
2017-05-31T03:25:27.858Z,928.8
2017-05-31T03:25:47.045Z,928.8
2017-05-31T03:26:06.578Z,928.82
2017-05-31T03:26:25.388Z,928.83
2017-05-31T03:26:44.750Z,928.79
2017-05-31T03:27:04.094Z,928.81
2017-05-31T03:27:22.978Z,928.8
2017-05-31T03:27:42.393Z,928.84
2017-05-31T03:28:01.885Z,928.81
2017-05-31T03:28:21.305Z,928.84
2017-05-31T03:28:40.571Z,928.83
2017-05-31T03:28:59.821Z,928.8
2017-05-31T03:29:19.134Z,928.83
2017-05-31T03:29:38.443Z,928.81
2017-05-31T03:29:57.728Z,928.8
2017-05-31T03:30:16.034Z,928.8
2017-05-31T03:30:34.869Z,928.75
2017-05-31T03:30:54.772Z,928.75
2017-05-31T03:31:13.575Z,928.78
2017-05-31T03:31:32.343Z,928.74
2017-05-31T03:31:51.620Z,928.78
2017-05-31T03:32:11.421Z,928.74
2017-05-31T03:32:30.595Z,928.76
2017-05-31T03:32:49.381Z,928.79
2017-05-31T03:33:08.667Z,928.73
2017-05-31T03:33:26.933Z,928.78
2017-05-31T03:33:45.733Z,928.78
2017-05-31T03:34:04.161Z,928.75
2017-05-31T03:34:22.418Z,928.77
2017-05-31T03:34:41.724Z,928.75
2017-05-31T03:35:00.980Z,928.72
2017-05-31T03:35:20.251Z,928.75
2017-05-31T03:35:39.563Z,928.75
2017-05-31T03:35:58.844Z,928.69
2017-05-31T03:36:18.139Z,928.7
2017-05-31T03:36:37.401Z,928.7
2017-05-31T03:36:56.648Z,928.67
2017-05-31T03:37:15.916Z,928.65
2017-05-31T03:37:35.179Z,928.65
2017-05-31T03:37:54.428Z,928.65
2017-05-31T03:38:12.669Z,928.67
2017-05-31T03:38:31.471Z,928.63
2017-05-31T03:38:50.737Z,928.64
2017-05-31T03:39:10.014Z,928.64
2017-05-31T03:39:29.447Z,928.65
2017-05-31T03:39:48.253Z,928.65
2017-05-31T03:40:07.479Z,928.64
2017-05-31T03:40:26.752Z,928.63
2017-05-31T03:40:46.087Z,928.65
2017-05-31T03:41:05.485Z,928.58
2017-05-31T03:41:24.268Z,928.59
2017-05-31T03:41:42.569Z,928.59
2017-05-31T03:42:01.396Z,928.57
2017-05-31T03:42:21.143Z,928.58
2017-05-31T03:42:40.510Z,928.61
2017-05-31T03:42:59.800Z,928.56
2017-05-31T03:43:19.067Z,928.59
2017-05-31T03:43:37.865Z,928.56
2017-05-31T03:43:57.163Z,928.52
2017-05-31T03:44:15.889Z,928.53
2017-05-31T03:44:35.160Z,928.5
2017-05-31T03:44:54.383Z,928.52
2017-05-31T03:45:13.679Z,928.54
2017-05-31T03:45:33.072Z,928.49
2017-05-31T03:45:52.746Z,928.52
2017-05-31T03:46:11.503Z,928.49
2017-05-31T03:46:30.241Z,928.51
2017-05-31T03:46:49.772Z,928.5
2017-05-31T03:47:08.588Z,928.49
2017-05-31T03:47:27.853Z,928.52
2017-05-31T03:47:46.617Z,928.51
2017-05-31T03:48:05.878Z,928.5
2017-05-31T03:48:24.707Z,928.5
2017-05-31T03:48:43.540Z,928.51
2017-05-31T03:49:02.823Z,928.52
2017-05-31T03:49:22.209Z,928.51
2017-05-31T03:49:41.492Z,928.51
2017-05-31T03:50:00.774Z,928.49
2017-05-31T03:50:19.562Z,928.48
2017-05-31T03:50:38.829Z,928.46
2017-05-31T03:50:57.073Z,928.45
2017-05-31T03:51:16.382Z,928.48
2017-05-31T03:51:35.689Z,928.49
2017-05-31T03:51:55.122Z,928.49
2017-05-31T03:52:13.936Z,928.49
2017-05-31T03:52:33.188Z,928.47
2017-05-31T03:52:52.474Z,928.47
2017-05-31T03:53:11.268Z,928.47
2017-05-31T03:53:29.509Z,928.48
2017-05-31T03:53:48.809Z,928.46
2017-05-31T03:54:08.101Z,928.46
2017-05-31T03:54:26.870Z,928.48
2017-05-31T03:54:45.645Z,928.46
2017-05-31T03:55:04.418Z,928.47
2017-05-31T03:55:23.729Z,928.45
2017-05-31T03:55:41.995Z,928.43
2017-05-31T03:56:01.240Z,928.45
2017-05-31T03:56:20.542Z,928.42
2017-05-31T03:56:39.297Z,928.39
2017-05-31T03:56:58.268Z,928.42
2017-05-31T03:57:17.575Z,928.4
2017-05-31T03:57:36.850Z,928.4
2017-05-31T03:57:56.129Z,928.41
2017-05-31T03:58:14.343Z,928.41
2017-05-31T03:58:33.109Z,928.4
2017-05-31T03:58:52.580Z,928.41
2017-05-31T03:59:11.566Z,928.42
2017-05-31T03:59:30.313Z,928.42
2017-05-31T03:59:49.099Z,928.4